sensor_id;sensor_type;location;lat;lon;timestamp;temperature;humidity
23311;DHT22;11828;51.508;18.118;2022-11-03T00:01:45;26.90;30.00
23311;DHT22;11828;51.508;18.118;2022-11-03T00:04:14;26.90;30.00
23311;DHT22;11828;51.508;18.118;2022-11-03T00:06:42;26.90;30.10
23311;DHT22;11828;51.508;18.118;2022-11-03T00:09:13;26.80;30.00
23311;DHT22;11828;51.508;18.118;2022-11-03T00:11:41;26.70;30.00
23311;DHT22;11828;51.508;18.118;2022-11-03T00:14:09;26.70;30.00
23311;DHT22;11828;51.508;18.118;2022-11-03T00:16:37;26.70;30.10
23311;DHT22;11828;51.508;18.118;2022-11-03T00:19:04;26.70;30.10
23311;DHT22;11828;51.508;18.118;2022-11-03T00:21:32;26.70;30.00
23311;DHT22;11828;51.508;18.118;2022-11-03T00:23:58;26.60;30.00
23311;DHT22;11828;51.508;18.118;2022-11-03T00:26:26;26.60;30.00
23311;DHT22;11828;51.508;18.118;2022-11-03T00:28:58;26.60;30.10
23311;DHT22;11828;51.508;18.118;2022-11-03T00:31:27;26.50;30.00
23311;DHT22;11828;51.508;18.118;2022-11-03T00:33:55;26.50;30.00
23311;DHT22;11828;51.508;18.118;2022-11-03T00:36:24;26.50;30.10
23311;DHT22;11828;51.508;18.118;2022-11-03T00:38:52;26.50;30.20
23311;DHT22;11828;51.508;18.118;2022-11-03T00:41:20;26.40;30.20
23311;DHT22;11828;51.508;18.118;2022-11-03T00:43:46;26.40;30.20
23311;DHT22;11828;51.508;18.118;2022-11-03T00:46:13;26.40;30.30
23311;DHT22;11828;51.508;18.118;2022-11-03T00:48:40;26.40;30.30
23311;DHT22;11828;51.508;18.118;2022-11-03T00:51:24;26.40;30.90
23311;DHT22;11828;51.508;18.118;2022-11-03T00:53:59;26.40;30.10
23311;DHT22;11828;51.508;18.118;2022-11-03T00:56:31;26.50;30.10
23311;DHT22;11828;51.508;18.118;2022-11-03T00:59:00;26.50;30.10
23311;DHT22;11828;51.508;18.118;2022-11-03T01:01:38;26.50;30.10
23311;DHT22;11828;51.508;18.118;2022-11-03T01:04:06;26.50;30.00
23311;DHT22;11828;51.508;18.118;2022-11-03T01:06:53;26.50;30.00
23311;DHT22;11828;51.508;18.118;2022-11-03T01:09:33;26.50;30.00
23311;DHT22;11828;51.508;18.118;2022-11-03T01:12:11;26.50;29.90
23311;DHT22;11828;51.508;18.118;2022-11-03T01:14:46;26.50;29.90
23311;DHT22;11828;51.508;18.118;2022-11-03T01:17:24;26.50;29.90
23311;DHT22;11828;51.508;18.118;2022-11-03T01:19:51;26.40;29.90
23311;DHT22;11828;51.508;18.118;2022-11-03T01:22:18;26.40;30.00
23311;DHT22;11828;51.508;18.118;2022-11-03T01:24:45;26.40;29.90
23311;DHT22;11828;51.508;18.118;2022-11-03T01:27:17;26.40;29.90
23311;DHT22;11828;51.508;18.118;2022-11-03T01:29:43;26.40;29.80
23311;DHT22;11828;51.508;18.118;2022-11-03T01:32:10;26.40;29.70
23311;DHT22;11828;51.508;18.118;2022-11-03T01:34:37;26.30;29.70
23311;DHT22;11828;51.508;18.118;2022-11-03T01:37:04;26.30;29.60
23311;DHT22;11828;51.508;18.118;2022-11-03T01:39:30;26.30;29.70
23311;DHT22;11828;51.508;18.118;2022-11-03T01:41:56;26.30;29.80
23311;DHT22;11828;51.508;18.118;2022-11-03T01:44:25;26.20;29.70
23311;DHT22;11828;51.508;18.118;2022-11-03T01:49:53;26.20;29.80
23311;DHT22;11828;51.508;18.118;2022-11-03T01:52:31;26.20;29.80
23311;DHT22;11828;51.508;18.118;2022-11-03T01:55:31;26.10;29.60
23311;DHT22;11828;51.508;18.118;2022-11-03T01:58:18;26.00;29.50
23311;DHT22;11828;51.508;18.118;2022-11-03T02:00:51;25.90;29.60
23311;DHT22;11828;51.508;18.118;2022-11-03T02:03:19;25.80;29.50
23311;DHT22;11828;51.508;18.118;2022-11-03T02:05:47;25.50;29.30
23311;DHT22;11828;51.508;18.118;2022-11-03T02:08:15;25.40;29.70
23311;DHT22;11828;51.508;18.118;2022-11-03T02:10:47;25.40;29.70
23311;DHT22;11828;51.508;18.118;2022-11-03T02:13:19;25.50;29.80
23311;DHT22;11828;51.508;18.118;2022-11-03T02:15:55;25.50;29.70
23311;DHT22;11828;51.508;18.118;2022-11-03T02:18:28;25.70;29.60
23311;DHT22;11828;51.508;18.118;2022-11-03T02:21:07;25.70;29.30
23311;DHT22;11828;51.508;18.118;2022-11-03T02:26:32;25.20;29.40
23311;DHT22;11828;51.508;18.118;2022-11-03T02:28:59;25.10;29.70
23311;DHT22;11828;51.508;18.118;2022-11-03T02:31:42;24.80;29.90
23311;DHT22;11828;51.508;18.118;2022-11-03T02:34:18;24.80;30.00
23311;DHT22;11828;51.508;18.118;2022-11-03T02:37:08;24.70;30.00
23311;DHT22;11828;51.508;18.118;2022-11-03T02:39:40;24.60;30.00
23311;DHT22;11828;51.508;18.118;2022-11-03T02:42:10;24.60;30.10
23311;DHT22;11828;51.508;18.118;2022-11-03T02:44:37;24.50;30.10
23311;DHT22;11828;51.508;18.118;2022-11-03T02:47:08;24.40;30.00
23311;DHT22;11828;51.508;18.118;2022-11-03T02:49:44;24.20;30.00
23311;DHT22;11828;51.508;18.118;2022-11-03T02:52:50;24.20;30.40
23311;DHT22;11828;51.508;18.118;2022-11-03T02:55:39;24.10;30.60
23311;DHT22;11828;51.508;18.118;2022-11-03T02:58:28;24.00;30.70
23311;DHT22;11828;51.508;18.118;2022-11-03T03:01:11;24.00;30.60
23311;DHT22;11828;51.508;18.118;2022-11-03T03:03:44;24.00;30.50
23311;DHT22;11828;51.508;18.118;2022-11-03T03:06:27;24.00;30.60
23311;DHT22;11828;51.508;18.118;2022-11-03T03:09:20;23.90;30.50
23311;DHT22;11828;51.508;18.118;2022-11-03T03:11:51;23.90;30.40
23311;DHT22;11828;51.508;18.118;2022-11-03T03:17:17;23.70;30.60
23311;DHT22;11828;51.508;18.118;2022-11-03T03:22:35;23.40;30.80
23311;DHT22;11828;51.508;18.118;2022-11-03T03:25:37;23.30;31.00
23311;DHT22;11828;51.508;18.118;2022-11-03T03:31:00;23.10;31.60
23311;DHT22;11828;51.508;18.118;2022-11-03T03:33:31;23.00;31.50
23311;DHT22;11828;51.508;18.118;2022-11-03T03:36:01;22.80;31.60
23311;DHT22;11828;51.508;18.118;2022-11-03T03:38:42;22.70;31.90
23311;DHT22;11828;51.508;18.118;2022-11-03T03:41:12;22.60;32.20
23311;DHT22;11828;51.508;18.118;2022-11-03T03:43:52;22.70;32.00
23311;DHT22;11828;51.508;18.118;2022-11-03T03:46:22;22.70;32.00
23311;DHT22;11828;51.508;18.118;2022-11-03T03:48:51;22.70;32.00
23311;DHT22;11828;51.508;18.118;2022-11-03T03:51:18;22.80;32.00
23311;DHT22;11828;51.508;18.118;2022-11-03T03:53:49;22.70;32.00
23311;DHT22;11828;51.508;18.118;2022-11-03T03:56:22;22.70;31.90
23311;DHT22;11828;51.508;18.118;2022-11-03T03:58:55;22.70;31.90
23311;DHT22;11828;51.508;18.118;2022-11-03T04:01:21;22.80;40.80
23311;DHT22;11828;51.508;18.118;2022-11-03T04:03:47;22.40;43.50
23311;DHT22;11828;51.508;18.118;2022-11-03T04:06:14;22.30;32.40
23311;DHT22;11828;51.508;18.118;2022-11-03T04:08:40;22.30;32.60
23311;DHT22;11828;51.508;18.118;2022-11-03T04:11:06;22.00;33.70
23311;DHT22;11828;51.508;18.118;2022-11-03T04:13:50;22.30;32.70
23311;DHT22;11828;51.508;18.118;2022-11-03T04:16:35;22.60;32.40
23311;DHT22;11828;51.508;18.118;2022-11-03T04:19:19;22.60;32.00
